Accueil
METAR-TAF:

METAR-TAF

Aéroports :

Pikeville, Kentucky, États-Unis

latitude: 37-33-42N, longitude: 082-33-59W, altitude: 449 m

Observation

Le bulletin a été fait il y a 20 minutes, à 16:15 UTC
Vent 4 kt de sud/sud-ouest
Température 5°C
Humidité 45%
Pression 1025 hPa
Visibilité: 16.1 km
Ciel clair

METAR: KPBX 141615Z AUTO 20004KT 10SM CLR 05/M06 A3028 RMK AO2 T00541058

Heure: 11:35 (16:35 UTC)


TAF: absent

Observations et prévisions météorologiques de plus de 4000 aéroports (messages METAR et TAF).

Les stations disponibles sont représentées par des disques jaunes et rouges sur la carte.

Passer la souris dessus pour voir le nom de la station.

Cliquer dessus pour voir les observations et prévisions météorologiques.

Pour changer de carte: cliquez sur les boutons verts avec une croix noire pour zoomer, sur le bouton vert avec un tiret pour effectuer un zoom arrière, ou sur les flèches vertes pour les cartes adjacentes.


METAR-TAF: